createdAt,value
2022-11-28T00:02:22.156Z,89.82
2022-11-28T00:04:52.326Z,90.22
2022-11-28T00:07:19.399Z,90.50
2022-11-28T00:09:46.412Z,90.00
2022-11-28T00:12:15.507Z,90.38
2022-11-28T00:14:42.445Z,90.75
2022-11-28T00:17:16.057Z,90.83
2022-11-28T00:19:42.923Z,90.68
2022-11-28T00:22:09.540Z,89.90
2022-11-28T00:24:36.242Z,89.57
2022-11-28T00:27:02.885Z,90.15
2022-11-28T00:29:29.592Z,89.19
2022-11-28T00:31:56.404Z,89.51
2022-11-28T00:34:23.099Z,90.35
2022-11-28T00:36:49.752Z,88.97
2022-11-28T00:39:17.402Z,88.48
2022-11-28T00:41:44.247Z,88.84
2022-11-28T00:44:11.049Z,88.32
2022-11-28T00:46:37.703Z,89.35
2022-11-28T00:49:04.455Z,89.46
2022-11-28T00:51:34.727Z,89.40
2022-11-28T00:54:04.037Z,89.39
2022-11-28T00:56:33.484Z,89.55
2022-11-28T00:59:00.464Z,89.95
2022-11-28T01:01:38.682Z,89.62
2022-11-28T01:04:07.957Z,90.19
2022-11-28T01:06:40.071Z,90.04
2022-11-28T01:09:18.707Z,90.34
2022-11-28T01:11:46.541Z,89.95
2022-11-28T01:14:13.652Z,90.86
2022-11-28T01:16:40.359Z,91.27
2022-11-28T01:19:07.010Z,91.37
2022-11-28T01:21:34.306Z,91.30
2022-11-28T01:24:01.151Z,91.20
2022-11-28T01:26:29.475Z,91.06
2022-11-28T01:28:56.306Z,91.34
2022-11-28T01:31:25.155Z,91.18
2022-11-28T01:33:52.148Z,91.74
2022-11-28T01:36:19.449Z,91.04
2022-11-28T01:38:46.090Z,91.56
2022-11-28T01:41:13.397Z,90.92
2022-11-28T01:44:01.782Z,91.34
2022-11-28T01:46:28.985Z,90.71
2022-11-28T01:48:58.699Z,90.85
2022-11-28T01:51:25.445Z,90.14
2022-11-28T01:53:52.362Z,91.22
2022-11-28T01:56:27.743Z,90.90
2022-11-28T01:59:00.160Z,90.99
2022-11-28T02:01:27.163Z,90.91
2022-11-28T02:03:54.973Z,90.17
2022-11-28T02:06:23.802Z,89.97
2022-11-28T02:08:54.107Z,89.85
2022-11-28T02:11:58.336Z,89.63
2022-11-28T02:15:03.617Z,89.09
2022-11-28T02:18:07.600Z,89.54
2022-11-28T02:21:09.590Z,89.29
2022-11-28T02:23:54.250Z,89.15
2022-11-28T02:26:58.666Z,88.62
2022-11-28T02:29:40.110Z,88.90
2022-11-28T02:32:18.939Z,89.00
2022-11-28T02:34:48.871Z,88.80
2022-11-28T02:37:36.411Z,88.53
2022-11-28T02:40:11.343Z,88.63
2022-11-28T02:42:40.812Z,89.38
2022-11-28T02:45:11.604Z,90.00
2022-11-28T02:47:43.732Z,90.77
2022-11-28T02:50:19.881Z,90.76
2022-11-28T02:52:51.073Z,90.83
2022-11-28T02:55:18.101Z,91.64
2022-11-28T02:57:50.526Z,91.94
2022-11-28T03:00:25.420Z,92.36
2022-11-28T03:03:15.497Z,91.88
2022-11-28T03:06:06.824Z,91.73
2022-11-28T03:08:55.187Z,92.51
2022-11-28T03:11:40.082Z,92.38
2022-11-28T03:14:23.832Z,91.98
2022-11-28T03:17:12.965Z,91.17
2022-11-28T03:19:47.514Z,91.13
2022-11-28T03:22:33.949Z,92.56
2022-11-28T03:25:09.260Z,92.62
2022-11-28T03:27:38.996Z,93.50
2022-11-28T03:30:14.755Z,93.79
2022-11-28T03:32:41.935Z,92.45
2022-11-28T03:35:15.623Z,93.79
2022-11-28T03:37:47.064Z,94.26
2022-11-28T03:40:20.387Z,93.67
2022-11-28T03:43:00.681Z,93.25
2022-11-28T03:45:30.169Z,93.79
2022-11-28T03:48:07.075Z,93.67
2022-11-28T03:50:36.980Z,93.27
2022-11-28T03:53:06.841Z,93.78
2022-11-28T03:55:40.201Z,93.69
2022-11-28T03:58:13.314Z,93.38
2022-11-28T04:00:48.749Z,94.21
2022-11-28T04:03:15.341Z,94.21
2022-11-28T04:05:46.553Z,94.20
2022-11-28T04:08:20.865Z,94.54
2022-11-28T04:11:04.059Z,94.81
2022-11-28T04:13:35.444Z,94.82
2022-11-28T04:16:04.103Z,94.67
2022-11-28T04:18:34.107Z,94.94
2022-11-28T04:21:08.467Z,95.03
2022-11-28T04:23:36.043Z,94.76
2022-11-28T04:26:15.509Z,94.98
2022-11-28T04:28:43.130Z,94.62
2022-11-28T04:31:10.131Z,94.65
2022-11-28T04:33:40.492Z,93.47
2022-11-28T04:36:08.732Z,93.52
2022-11-28T04:38:36.090Z,94.11
2022-11-28T04:41:43.178Z,93.94
2022-11-28T04:44:14.015Z,94.48
2022-11-28T04:46:44.462Z,94.19
2022-11-28T04:49:11.376Z,94.01
2022-11-28T04:52:10.303Z,93.34
2022-11-28T04:54:40.499Z,93.51
2022-11-28T04:57:15.064Z,93.03
2022-11-28T04:59:42.488Z,92.93
2022-11-28T05:02:09.824Z,92.08
2022-11-28T05:04:37.056Z,92.17
2022-11-28T05:07:05.244Z,91.68
2022-11-28T05:09:31.927Z,92.09
2022-11-28T05:11:58.778Z,91.92
2022-11-28T05:14:26.588Z,91.89
2022-11-28T05:16:53.339Z,92.07
2022-11-28T05:19:20.025Z,92.52
2022-11-28T05:21:46.729Z,93.39
2022-11-28T05:24:13.361Z,93.27
2022-11-28T05:26:40.428Z,93.96
2022-11-28T05:29:07.223Z,93.72
2022-11-28T05:31:33.882Z,93.37
2022-11-28T05:34:00.652Z,93.48
2022-11-28T05:36:27.286Z,94.18
2022-11-28T05:38:53.871Z,94.25
2022-11-28T05:41:23.181Z,93.30
2022-11-28T05:43:50.084Z,92.94
2022-11-28T05:46:17.315Z,93.31
2022-11-28T05:48:44.026Z,93.58
2022-11-28T05:51:10.795Z,93.43
2022-11-28T05:53:37.464Z,93.62
2022-11-28T05:56:08.784Z,92.45
2022-11-28T05:58:35.676Z,92.30
2022-11-28T06:01:16.654Z,92.91
2022-11-28T06:03:43.913Z,92.02
2022-11-28T06:06:21.534Z,92.69
2022-11-28T06:08:49.412Z,92.51
2022-11-28T06:11:17.199Z,91.98
2022-11-28T06:13:45.032Z,91.69
2022-11-28T06:16:17.387Z,91.80
2022-11-28T06:18:44.374Z,91.38
2022-11-28T06:21:13.450Z,90.50
2022-11-28T06:23:40.990Z,91.80
2022-11-28T06:26:13.056Z,91.73
2022-11-28T06:28:40.527Z,91.07
2022-11-28T06:31:28.476Z,90.83
2022-11-28T06:33:56.063Z,90.60
2022-11-28T06:36:22.880Z,90.63
2022-11-28T06:38:49.515Z,91.40
2022-11-28T06:41:18.452Z,90.93
2022-11-28T06:43:45.083Z,91.25
2022-11-28T06:46:16.291Z,91.16
2022-11-28T06:48:44.415Z,91.47
2022-11-28T06:51:11.689Z,91.56
2022-11-28T06:53:38.668Z,91.27
2022-11-28T06:56:10.677Z,90.91
2022-11-28T06:58:37.493Z,90.47
2022-11-28T07:01:09.774Z,90.24
2022-11-28T07:03:37.704Z,90.89
2022-11-28T07:06:06.211Z,90.60
2022-11-28T07:08:33.447Z,89.41
2022-11-28T07:11:11.337Z,89.24
2022-11-28T07:13:38.354Z,88.81
2022-11-28T07:16:05.435Z,88.39
2022-11-28T07:18:32.469Z,88.33
2022-11-28T07:20:59.319Z,88.12
2022-11-28T07:23:26.194Z,88.98
2022-11-28T07:25:58.495Z,88.42
2022-11-28T07:28:25.376Z,88.51
2022-11-28T07:31:06.995Z,87.58
2022-11-28T07:33:37.692Z,88.59
2022-11-28T07:36:06.101Z,88.09
2022-11-28T07:38:32.969Z,88.42
2022-11-28T07:41:08.350Z,88.93
2022-11-28T07:43:35.175Z,89.04
2022-11-28T07:46:07.341Z,89.05
2022-11-28T07:48:34.977Z,89.47
2022-11-28T07:51:10.095Z,89.40
2022-11-28T07:53:37.594Z,89.54
2022-11-28T07:56:09.267Z,88.93
2022-11-28T07:58:36.967Z,89.38
2022-11-28T08:01:24.250Z,89.56
2022-11-28T08:03:52.231Z,89.24
2022-11-28T08:06:20.772Z,88.83
2022-11-28T08:08:48.360Z,88.67
2022-11-28T08:11:17.247Z,88.98
2022-11-28T08:13:44.162Z,89.11
2022-11-28T08:16:17.262Z,89.27
2022-11-28T08:18:44.505Z,88.55
2022-11-28T08:21:15.443Z,88.41
2022-11-28T08:23:42.360Z,88.16
2022-11-28T08:26:10.360Z,88.02
2022-11-28T08:28:37.150Z,88.61
2022-11-28T08:31:14.675Z,88.12
2022-11-28T08:33:41.770Z,88.25
2022-11-28T08:36:09.809Z,88.47
2022-11-28T08:38:37.755Z,88.71
2022-11-28T08:41:12.954Z,88.48
2022-11-28T08:43:39.887Z,89.28
2022-11-28T08:46:11.543Z,89.13
2022-11-28T08:48:39.922Z,88.88
2022-11-28T08:51:07.931Z,89.25
2022-11-28T08:53:34.587Z,88.62
2022-11-28T08:56:01.237Z,88.86
2022-11-28T08:58:28.159Z,88.74
2022-11-28T09:00:54.897Z,89.49
2022-11-28T09:03:21.662Z,88.88
2022-11-28T09:05:48.605Z,88.70
2022-11-28T09:08:17.529Z,88.77
2022-11-28T09:10:45.478Z,88.85
2022-11-28T09:13:13.231Z,88.96
2022-11-28T09:15:44.871Z,88.10
2022-11-28T09:18:13.077Z,87.60
2022-11-28T09:20:40.273Z,88.04
2022-11-28T09:23:08.406Z,88.22
2022-11-28T09:25:36.129Z,88.54
2022-11-28T09:28:02.812Z,88.45
2022-11-28T09:30:29.601Z,88.96
2022-11-28T09:32:56.229Z,89.37
2022-11-28T09:35:23.096Z,89.02
2022-11-28T09:37:49.719Z,90.33
2022-11-28T09:40:33.188Z,90.28
2022-11-28T09:43:01.671Z,90.53
2022-11-28T09:45:28.580Z,90.47
2022-11-28T09:47:58.247Z,90.33
2022-11-28T09:50:35.751Z,91.54
2022-11-28T09:53:08.339Z,91.16
2022-11-28T09:55:47.934Z,91.02
2022-11-28T09:58:22.455Z,90.56
2022-11-28T10:01:15.307Z,91.24
2022-11-28T10:04:08.392Z,91.04
2022-11-28T10:06:49.630Z,92.23
2022-11-28T10:09:35.196Z,92.92
2022-11-28T10:12:39.467Z,92.83
2022-11-28T10:15:33.396Z,92.17
2022-11-28T10:18:16.857Z,93.62
2022-11-28T10:20:45.209Z,92.61
2022-11-28T10:23:16.855Z,92.92
2022-11-28T10:25:47.371Z,93.25
2022-11-28T10:28:17.330Z,93.45
2022-11-28T10:30:49.215Z,91.72
2022-11-28T10:33:23.258Z,93.22
2022-11-28T10:36:01.179Z,93.97
2022-11-28T10:38:29.368Z,94.07
2022-11-28T10:41:00.879Z,94.30
2022-11-28T10:43:46.444Z,94.63
2022-11-28T10:46:22.256Z,93.91
2022-11-28T10:49:20.023Z,93.72
2022-11-28T10:51:50.056Z,94.10
2022-11-28T10:54:25.743Z,93.38
2022-11-28T10:57:09.121Z,92.45
2022-11-28T11:00:00.586Z,93.02
2022-11-28T11:02:49.882Z,92.76
2022-11-28T11:05:19.510Z,92.86
2022-11-28T11:07:50.127Z,92.00
2022-11-28T11:10:19.434Z,93.45
2022-11-28T11:12:46.812Z,93.42
2022-11-28T11:15:21.622Z,93.26
2022-11-28T11:17:50.463Z,94.06
2022-11-28T11:20:23.148Z,93.00
2022-11-28T11:22:57.272Z,93.11
2022-11-28T11:25:25.512Z,93.47
2022-11-28T11:27:54.834Z,92.66
2022-11-28T11:30:35.858Z,93.05
2022-11-28T11:33:05.277Z,93.18
2022-11-28T11:35:36.068Z,93.52
2022-11-28T11:38:34.779Z,93.77
2022-11-28T11:41:29.843Z,93.58
2022-11-28T11:43:57.609Z,93.54
2022-11-28T11:46:24.334Z,93.96
2022-11-28T11:48:53.288Z,94.06
2022-11-28T11:51:35.249Z,94.04
2022-11-28T11:54:05.696Z,93.39
2022-11-28T11:56:37.769Z,95.37
2022-11-28T11:59:11.317Z,95.02
2022-11-28T12:01:39.532Z,95.98
2022-11-28T12:04:23.815Z,96.25
2022-11-28T12:06:55.545Z,96.21
2022-11-28T12:09:34.244Z,97.22
2022-11-28T12:12:07.683Z,96.76
2022-11-28T12:14:36.455Z,94.81
2022-11-28T12:17:46.907Z,94.94
2022-11-28T12:20:25.147Z,95.24
2022-11-28T12:23:22.829Z,95.13
2022-11-28T12:25:55.697Z,95.65
2022-11-28T12:28:26.667Z,95.03
2022-11-28T12:31:18.136Z,95.54
2022-11-28T12:33:56.890Z,94.91
2022-11-28T12:36:29.638Z,95.87
2022-11-28T12:39:03.732Z,96.51
2022-11-28T12:42:01.058Z,95.88
2022-11-28T12:45:06.103Z,97.76
2022-11-28T12:47:48.100Z,96.97
2022-11-28T12:50:30.580Z,96.92
2022-11-28T12:53:09.985Z,97.93
2022-11-28T12:56:11.361Z,97.52
2022-11-28T12:58:46.351Z,96.67
2022-11-28T13:01:34.675Z,95.96
2022-11-28T13:04:29.417Z,95.79
2022-11-28T13:07:07.803Z,95.47
2022-11-28T13:09:56.262Z,96.07
2022-11-28T13:12:29.554Z,96.58
2022-11-28T13:14:58.723Z,97.11
2022-11-28T13:18:04.178Z,96.71
2022-11-28T13:20:42.157Z,97.35
2022-11-28T13:23:18.928Z,96.97
2022-11-28T13:26:09.118Z,97.69
2022-11-28T13:28:42.587Z,96.31
2022-11-28T13:31:21.146Z,96.94
2022-11-28T13:33:52.606Z,97.39
2022-11-28T13:39:49.724Z,96.91
2022-11-28T13:42:58.832Z,97.62
2022-11-28T13:45:32.600Z,98.10
2022-11-28T13:48:00.836Z,98.07
2022-11-28T13:50:36.580Z,97.39
2022-11-28T13:53:06.057Z,98.11
2022-11-28T13:55:47.523Z,97.65
2022-11-28T13:58:28.487Z,97.47
2022-11-28T14:01:13.718Z,97.99
2022-11-28T14:03:52.915Z,97.78
2022-11-28T14:06:25.384Z,97.72
2022-11-28T14:09:13.984Z,98.35
2022-11-28T14:12:02.939Z,98.90
2022-11-28T14:14:52.535Z,99.17
2022-11-28T14:17:30.306Z,98.43
2022-11-28T14:20:06.538Z,99.71
2022-11-28T14:22:57.216Z,100.00
2022-11-28T14:25:28.490Z,100.00
2022-11-28T14:27:58.495Z,100.00
2022-11-28T14:30:32.611Z,98.97
2022-11-28T14:33:05.594Z,98.81
2022-11-28T14:35:50.779Z,98.60
2022-11-28T14:38:30.282Z,98.84
2022-11-28T14:41:00.944Z,98.86
2022-11-28T14:43:34.955Z,99.80
2022-11-28T14:46:26.619Z,100.00
2022-11-28T14:48:59.695Z,100.00
2022-11-28T14:51:45.668Z,100.00
2022-11-28T14:54:37.829Z,100.00
2022-11-28T14:57:16.489Z,100.00
2022-11-28T14:59:43.770Z,100.00
2022-11-28T15:02:11.008Z,100.00
2022-11-28T15:04:55.546Z,100.00
2022-11-28T15:07:43.754Z,100.00
2022-11-28T15:10:18.787Z,100.00
2022-11-28T15:12:51.896Z,100.00
2022-11-28T15:15:20.426Z,100.00
2022-11-28T15:17:48.525Z,100.00
2022-11-28T15:20:37.383Z,100.00
2022-11-28T15:23:04.326Z,100.00
2022-11-28T15:25:37.324Z,100.00
2022-11-28T15:28:18.261Z,100.00
2022-11-28T15:30:47.568Z,100.00
2022-11-28T15:33:14.427Z,100.00
2022-11-28T15:36:00.458Z,100.00
2022-11-28T15:38:29.984Z,100.00
2022-11-28T15:40:57.441Z,100.00
2022-11-28T15:43:24.744Z,100.00
2022-11-28T15:46:01.491Z,100.00
2022-11-28T15:48:39.673Z,100.00
2022-11-28T15:51:07.983Z,100.00
2022-11-28T15:53:40.761Z,100.00
2022-11-28T15:56:16.570Z,100.00
2022-11-28T15:58:44.569Z,100.00
2022-11-28T16:01:21.860Z,100.00
2022-11-28T16:04:13.636Z,100.00
2022-11-28T16:06:44.270Z,100.00
2022-11-28T16:09:20.209Z,100.00
2022-11-28T16:11:48.818Z,100.00
2022-11-28T16:14:24.276Z,100.00
2022-11-28T16:16:50.800Z,100.00
2022-11-28T16:19:28.979Z,100.00
2022-11-28T16:22:09.664Z,100.00
2022-11-28T16:24:48.612Z,100.00
2022-11-28T16:27:27.391Z,100.00
2022-11-28T16:29:54.269Z,100.00
2022-11-28T16:32:25.989Z,100.00
2022-11-28T16:34:54.329Z,100.00
2022-11-28T16:37:25.029Z,100.00
2022-11-28T16:40:14.330Z,100.00
2022-11-28T16:42:41.175Z,100.00
2022-11-28T16:45:21.190Z,100.00
2022-11-28T16:48:01.215Z,100.00
2022-11-28T16:50:28.020Z,100.00
2022-11-28T16:52:57.613Z,100.00
2022-11-28T16:55:27.196Z,100.00
2022-11-28T16:58:00.374Z,100.00
2022-11-28T17:00:27.266Z,100.00
2022-11-28T17:02:53.926Z,100.00
2022-11-28T17:05:20.749Z,100.00
2022-11-28T17:07:47.483Z,100.00
2022-11-28T17:10:14.281Z,100.00
2022-11-28T17:12:41.181Z,100.00
2022-11-28T17:15:14.442Z,100.00
2022-11-28T17:17:41.551Z,100.00
2022-11-28T17:20:09.046Z,100.00
2022-11-28T17:22:42.376Z,100.00
2022-11-28T17:25:27.154Z,100.00
2022-11-28T17:27:53.825Z,100.00
2022-11-28T17:30:21.091Z,100.00
2022-11-28T17:32:48.559Z,100.00
2022-11-28T17:35:25.108Z,100.00
2022-11-28T17:38:00.462Z,100.00
2022-11-28T17:40:33.070Z,100.00
2022-11-28T17:43:01.188Z,100.00
2022-11-28T17:45:29.537Z,100.00
2022-11-28T17:47:57.014Z,100.00
2022-11-28T17:50:23.624Z,100.00
2022-11-28T17:52:50.690Z,100.00
2022-11-28T17:55:18.495Z,100.00
2022-11-28T17:57:45.311Z,100.00
2022-11-28T18:00:16.789Z,100.00
2022-11-28T18:02:44.873Z,100.00
2022-11-28T18:05:11.807Z,100.00
2022-11-28T18:07:40.148Z,100.00
2022-11-28T18:10:10.843Z,100.00
2022-11-28T18:12:39.477Z,100.00
2022-11-28T18:15:08.031Z,100.00
2022-11-28T18:17:35.977Z,100.00
2022-11-28T18:20:03.598Z,100.00
2022-11-28T18:22:30.776Z,100.00
2022-11-28T18:24:57.819Z,100.00
2022-11-28T18:27:24.736Z,100.00
2022-11-28T18:29:51.877Z,100.00
2022-11-28T18:32:18.895Z,100.00
2022-11-28T18:34:45.485Z,100.00
2022-11-28T18:37:12.712Z,100.00
2022-11-28T18:39:39.326Z,100.00
2022-11-28T18:42:05.988Z,100.00
2022-11-28T18:48:20.438Z,100.00
2022-11-28T18:50:47.212Z,100.00
2022-11-28T18:53:13.909Z,100.00
2022-11-28T18:55:40.865Z,100.00
2022-11-28T18:58:07.723Z,100.00
2022-11-28T19:00:34.863Z,100.00
2022-11-28T19:03:02.145Z,100.00
2022-11-28T19:05:28.910Z,100.00
2022-11-28T19:08:01.654Z,100.00
2022-11-28T19:10:28.337Z,100.00
2022-11-28T19:12:57.206Z,100.00
2022-11-28T19:15:23.826Z,100.00
2022-11-28T19:17:50.412Z,100.00
2022-11-28T19:20:18.264Z,100.00
2022-11-28T19:22:46.972Z,100.00
2022-11-28T19:25:13.955Z,100.00
2022-11-28T19:27:40.670Z,100.00
2022-11-28T19:30:11.487Z,100.00
2022-11-28T19:32:50.888Z,100.00
2022-11-28T19:35:17.751Z,100.00
2022-11-28T19:37:44.417Z,100.00
2022-11-28T19:40:11.569Z,100.00
2022-11-28T19:42:38.335Z,100.00
2022-11-28T19:45:05.775Z,100.00
2022-11-28T19:47:35.196Z,100.00
2022-11-28T19:50:02.654Z,100.00
2022-11-28T19:52:31.214Z,100.00
2022-11-28T19:54:59.102Z,100.00
2022-11-28T19:57:26.369Z,100.00
2022-11-28T19:59:53.564Z,100.00
2022-11-28T20:02:23.156Z,100.00
2022-11-28T20:04:53.766Z,100.00
2022-11-28T20:07:20.656Z,100.00
2022-11-28T20:09:48.175Z,100.00
2022-11-28T20:12:14.839Z,100.00
2022-11-28T20:14:41.892Z,100.00
2022-11-28T20:17:08.546Z,100.00
2022-11-28T20:19:35.198Z,100.00
2022-11-28T20:22:02.429Z,100.00
2022-11-28T20:24:30.191Z,100.00
2022-11-28T20:26:57.330Z,100.00
2022-11-28T20:29:26.825Z,100.00
2022-11-28T20:31:54.258Z,100.00
2022-11-28T20:34:20.934Z,100.00
2022-11-28T20:36:52.899Z,100.00
2022-11-28T20:39:19.579Z,100.00
2022-11-28T20:41:46.678Z,100.00
2022-11-28T20:44:13.300Z,100.00
2022-11-28T20:46:40.128Z,100.00
2022-11-28T20:49:07.194Z,100.00
2022-11-28T20:51:34.803Z,100.00
2022-11-28T20:54:04.752Z,100.00
2022-11-28T20:56:41.809Z,100.00
2022-11-28T20:59:18.738Z,100.00
2022-11-28T21:01:45.306Z,100.00
2022-11-28T21:04:14.742Z,100.00
2022-11-28T21:06:42.435Z,100.00
2022-11-28T21:09:09.106Z,100.00
2022-11-28T21:11:56.200Z,100.00
2022-11-28T21:14:22.966Z,100.00
2022-11-28T21:16:49.588Z,100.00
2022-11-28T21:19:16.475Z,100.00
2022-11-28T21:21:43.264Z,100.00
2022-11-28T21:24:13.850Z,100.00
2022-11-28T21:26:45.366Z,100.00
2022-11-28T21:29:15.051Z,100.00
2022-11-28T21:31:44.291Z,100.00
2022-11-28T21:34:15.496Z,100.00
2022-11-28T21:36:42.643Z,100.00
2022-11-28T21:39:14.114Z,100.00
2022-11-28T21:41:41.156Z,100.00
2022-11-28T21:44:08.271Z,100.00
2022-11-28T21:46:35.019Z,100.00
2022-11-28T21:49:01.950Z,100.00
2022-11-28T21:51:28.930Z,100.00
2022-11-28T21:53:59.308Z,100.00
2022-11-28T21:56:35.611Z,100.00
2022-11-28T21:59:04.665Z,100.00
2022-11-28T22:02:12.004Z,100.00
2022-11-28T22:04:41.671Z,100.00
2022-11-28T22:07:09.222Z,100.00
2022-11-28T22:09:36.134Z,100.00
2022-11-28T22:12:03.614Z,100.00
2022-11-28T22:14:36.403Z,100.00
2022-11-28T22:17:03.394Z,100.00
2022-11-28T22:19:44.972Z,100.00
2022-11-28T22:22:14.545Z,100.00
2022-11-28T22:24:41.667Z,100.00
2022-11-28T22:27:08.807Z,100.00
2022-11-28T22:29:35.531Z,100.00
2022-11-28T22:32:03.668Z,100.00
2022-11-28T22:34:34.557Z,100.00
2022-11-28T22:37:03.830Z,100.00
2022-11-28T22:39:30.830Z,100.00
2022-11-28T22:41:57.490Z,100.00
2022-11-28T22:44:24.289Z,100.00
2022-11-28T22:46:52.264Z,100.00
2022-11-28T22:49:19.003Z,100.00
2022-11-28T22:51:45.658Z,100.00
2022-11-28T22:54:13.190Z,100.00
2022-11-28T22:56:41.187Z,100.00
2022-11-28T22:59:13.680Z,100.00
2022-11-28T23:01:40.872Z,100.00
2022-11-28T23:04:08.186Z,100.00
2022-11-28T23:06:35.208Z,100.00
2022-11-28T23:09:05.565Z,100.00
2022-11-28T23:11:35.341Z,100.00
2022-11-28T23:14:04.226Z,100.00
2022-11-28T23:16:37.991Z,100.00
2022-11-28T23:19:10.566Z,100.00
2022-11-28T23:21:40.485Z,100.00
2022-11-28T23:24:09.706Z,100.00
2022-11-28T23:26:37.878Z,100.00
2022-11-28T23:29:05.174Z,100.00
2022-11-28T23:31:34.995Z,100.00
2022-11-28T23:34:01.935Z,100.00
2022-11-28T23:36:30.134Z,100.00
2022-11-28T23:39:00.873Z,100.00
2022-11-28T23:41:28.664Z,100.00
2022-11-28T23:43:55.416Z,100.00
2022-11-28T23:46:23.024Z,100.00
2022-11-28T23:48:50.116Z,100.00
2022-11-28T23:51:18.815Z,100.00
2022-11-28T23:53:45.727Z,100.00
2022-11-28T23:56:18.527Z,100.00
2022-11-28T23:58:45.296Z,100.00
